createdAt,value
2023-04-12T00:00:46.401Z,25.73
2023-04-12T00:03:13.064Z,25.76
2023-04-12T00:05:39.700Z,25.55
2023-04-12T00:08:06.700Z,25.75
2023-04-12T00:10:33.264Z,25.74
2023-04-12T00:12:59.863Z,25.63
2023-04-12T00:15:26.460Z,25.57
2023-04-12T00:17:53.026Z,25.77
2023-04-12T00:20:19.662Z,25.78
2023-04-12T00:22:46.255Z,25.74
2023-04-12T00:25:12.838Z,25.76
2023-04-12T00:27:39.509Z,25.67
2023-04-12T00:30:08.403Z,25.75
2023-04-12T00:32:35.379Z,25.73
2023-04-12T00:35:02.314Z,25.77
2023-04-12T00:37:28.846Z,25.53
2023-04-12T00:39:55.449Z,25.73
2023-04-12T00:42:21.972Z,25.64
2023-04-12T00:44:48.533Z,25.72
2023-04-12T00:47:15.427Z,25.72
2023-04-12T00:49:41.962Z,25.73
2023-04-12T00:52:08.722Z,25.72
2023-04-12T00:54:36.692Z,25.70
2023-04-12T00:57:03.371Z,25.67
2023-04-12T00:59:29.907Z,25.63
2023-04-12T01:01:56.826Z,25.74
2023-04-12T01:04:26.178Z,25.65
2023-04-12T01:07:05.403Z,25.73
2023-04-12T01:09:44.666Z,25.68
2023-04-12T01:12:42.412Z,25.74
2023-04-12T01:15:15.559Z,25.64
2023-04-12T01:18:02.602Z,25.68
2023-04-12T01:20:31.709Z,25.57
2023-04-12T01:23:10.396Z,25.62
2023-04-12T01:26:00.358Z,25.59
2023-04-12T01:28:35.605Z,25.60
2023-04-12T01:31:02.991Z,25.39
2023-04-12T01:33:31.479Z,25.35
2023-04-12T01:35:59.788Z,25.37
2023-04-12T01:38:28.123Z,25.49
2023-04-12T01:40:55.227Z,25.38
2023-04-12T01:43:22.342Z,25.38
2023-04-12T01:45:48.936Z,25.46
2023-04-12T01:48:15.778Z,25.43
2023-04-12T01:51:10.774Z,25.51
2023-04-12T01:53:53.567Z,25.46
2023-04-12T01:56:20.444Z,25.36
2023-04-12T01:58:47.589Z,25.46
2023-04-12T02:01:15.410Z,25.37
2023-04-12T02:03:42.506Z,25.28
2023-04-12T02:06:09.434Z,25.27
2023-04-12T02:08:35.960Z,25.31
2023-04-12T02:11:08.573Z,25.34
2023-04-12T02:13:35.155Z,25.27
2023-04-12T02:16:02.346Z,25.36
2023-04-12T02:18:35.845Z,25.31
2023-04-12T02:21:02.563Z,25.43
2023-04-12T02:23:29.147Z,25.39
2023-04-12T02:25:56.197Z,25.40
2023-04-12T02:28:23.243Z,25.37
2023-04-12T02:30:53.432Z,25.44
2023-04-12T02:33:28.227Z,25.41
2023-04-12T02:35:57.345Z,25.40
2023-04-12T02:38:24.597Z,25.36
2023-04-12T02:40:51.294Z,25.35
2023-04-12T02:43:19.189Z,25.35
2023-04-12T02:45:50.533Z,25.30
2023-04-12T02:48:17.704Z,25.39
2023-04-12T02:50:45.014Z,25.34
2023-04-12T02:53:18.456Z,25.43
2023-04-12T02:55:52.166Z,25.38
2023-04-12T02:58:24.443Z,25.37
2023-04-12T03:00:52.405Z,25.37
2023-04-12T03:03:24.914Z,25.41
2023-04-12T03:05:55.203Z,25.44
2023-04-12T03:08:22.117Z,25.36
2023-04-12T03:10:55.684Z,25.30
2023-04-12T03:13:23.519Z,25.37
2023-04-12T03:15:55.394Z,25.31
2023-04-12T03:18:23.538Z,25.29
2023-04-12T03:20:52.831Z,25.27
2023-04-12T03:23:20.540Z,25.18
2023-04-12T03:25:56.130Z,25.23
2023-04-12T03:28:42.938Z,25.20
2023-04-12T03:31:10.723Z,25.11
2023-04-12T03:33:42.899Z,25.16
2023-04-12T03:36:21.601Z,25.11
2023-04-12T03:38:53.721Z,25.11
2023-04-12T03:41:22.350Z,25.10
2023-04-12T03:43:48.938Z,25.09
2023-04-12T03:46:18.027Z,25.08
2023-04-12T03:48:51.985Z,25.11
2023-04-12T03:51:22.271Z,25.16
2023-04-12T03:53:48.862Z,25.09
2023-04-12T03:56:15.866Z,25.18
2023-04-12T03:58:45.577Z,25.21
2023-04-12T04:01:13.798Z,25.20
2023-04-12T04:03:42.365Z,25.20
2023-04-12T04:06:19.155Z,25.18
2023-04-12T04:08:45.965Z,25.14
2023-04-12T04:11:13.777Z,25.10
2023-04-12T04:13:44.008Z,25.12
2023-04-12T04:16:17.928Z,25.08
2023-04-12T04:18:44.726Z,25.12
2023-04-12T04:21:16.436Z,25.13
2023-04-12T04:23:48.019Z,25.10
2023-04-12T04:26:17.888Z,25.09
2023-04-12T04:28:56.537Z,25.25
2023-04-12T04:31:34.352Z,25.24
2023-04-12T04:34:03.640Z,25.25
2023-04-12T04:36:35.607Z,25.27
2023-04-12T04:39:03.668Z,25.26
2023-04-12T04:41:41.363Z,25.25
2023-04-12T04:44:15.454Z,25.20
2023-04-12T04:46:54.655Z,25.29
2023-04-12T04:49:21.235Z,25.20
2023-04-12T04:51:48.450Z,25.27
2023-04-12T04:54:16.631Z,25.25
2023-04-12T04:56:43.904Z,25.27
2023-04-12T04:59:13.046Z,25.28
2023-04-12T05:01:41.298Z,25.25
2023-04-12T05:04:08.383Z,25.23
2023-04-12T05:06:35.287Z,25.28
2023-04-12T05:09:03.951Z,25.22
2023-04-12T05:11:33.122Z,25.30
2023-04-12T05:13:59.816Z,25.26
2023-04-12T05:16:26.409Z,25.14
2023-04-12T05:18:52.951Z,25.24
2023-04-12T05:21:19.798Z,25.26
2023-04-12T05:23:47.207Z,25.26
2023-04-12T05:26:13.939Z,25.19
2023-04-12T05:28:45.117Z,25.31
2023-04-12T05:31:12.450Z,25.27
2023-04-12T05:33:39.664Z,25.28
2023-04-12T05:36:06.703Z,25.29
2023-04-12T05:38:33.490Z,25.38
2023-04-12T05:41:05.555Z,25.38
2023-04-12T05:43:33.504Z,25.28
2023-04-12T05:46:01.324Z,25.22
2023-04-12T05:48:28.281Z,25.16
2023-04-12T05:50:56.886Z,25.13
2023-04-12T05:53:23.498Z,25.11
2023-04-12T05:55:51.614Z,25.11
2023-04-12T05:58:19.083Z,25.08
2023-04-12T06:00:49.523Z,25.03
2023-04-12T06:03:16.281Z,25.13
2023-04-12T06:05:43.052Z,25.17
2023-04-12T06:08:10.295Z,25.15
2023-04-12T06:10:36.867Z,25.18
2023-04-12T06:13:03.784Z,25.16
2023-04-12T06:15:31.960Z,24.92
2023-04-12T06:17:59.734Z,25.06
2023-04-12T06:20:26.600Z,25.16
2023-04-12T06:22:53.549Z,25.22
2023-04-12T06:25:21.390Z,25.21
2023-04-12T06:27:48.228Z,25.22
2023-04-12T06:30:17.084Z,25.22
2023-04-12T06:32:44.027Z,25.20
2023-04-12T06:35:11.300Z,25.20
2023-04-12T06:37:38.050Z,25.22
2023-04-12T06:40:05.274Z,25.18
2023-04-12T06:42:31.883Z,25.18
2023-04-12T06:44:58.446Z,25.09
2023-04-12T06:47:25.289Z,25.00
2023-04-12T06:49:54.801Z,25.20
2023-04-12T06:52:28.047Z,25.22
2023-04-12T06:54:56.069Z,25.28
2023-04-12T06:57:22.647Z,25.25
2023-04-12T06:59:49.187Z,25.25
2023-04-12T07:02:15.999Z,25.25
2023-04-12T07:04:42.641Z,25.23
2023-04-12T07:07:10.113Z,25.17
2023-04-12T07:09:36.637Z,25.25
2023-04-12T07:12:03.299Z,25.25
2023-04-12T07:14:29.925Z,25.15
2023-04-12T07:16:56.508Z,25.24
2023-04-12T07:19:23.193Z,25.03
2023-04-12T07:21:49.792Z,25.30
2023-04-12T07:24:16.418Z,25.20
2023-04-12T07:26:42.994Z,25.29
2023-04-12T07:29:09.549Z,25.26
2023-04-12T07:31:36.306Z,25.35
2023-04-12T07:34:03.071Z,25.36
2023-04-12T07:36:29.770Z,25.19
2023-04-12T07:38:57.058Z,25.40
2023-04-12T07:41:23.924Z,25.49
2023-04-12T07:43:50.529Z,25.35
2023-04-12T07:46:17.175Z,25.46
2023-04-12T07:48:44.026Z,25.49
2023-04-12T07:51:10.657Z,25.55
2023-04-12T07:53:41.952Z,25.51
2023-04-12T07:56:20.951Z,25.43
2023-04-12T07:58:53.670Z,25.32
2023-04-12T08:01:20.556Z,25.38
2023-04-12T08:03:47.521Z,25.38
2023-04-12T08:06:14.272Z,25.33
2023-04-12T08:08:41.271Z,25.34
2023-04-12T08:11:07.869Z,25.29
2023-04-12T08:13:34.647Z,25.31
2023-04-12T08:16:01.686Z,25.32
2023-04-12T08:18:29.147Z,25.45
2023-04-12T08:20:57.096Z,25.52
2023-04-12T08:23:23.835Z,25.48
2023-04-12T08:25:50.748Z,25.47
2023-04-12T08:28:17.394Z,25.53
2023-04-12T08:30:44.068Z,25.55
2023-04-12T08:33:10.813Z,25.50
2023-04-12T08:35:37.450Z,25.23
2023-04-12T08:38:07.677Z,25.37
2023-04-12T08:40:34.489Z,25.34
2023-04-12T08:43:02.014Z,25.31
2023-04-12T08:45:29.404Z,25.31
2023-04-12T08:47:56.488Z,25.40
2023-04-12T08:50:23.199Z,25.53
2023-04-12T08:52:52.289Z,25.59
2023-04-12T08:55:18.978Z,25.50
2023-04-12T08:57:45.587Z,25.48
2023-04-12T09:00:13.238Z,25.44
2023-04-12T09:02:43.282Z,25.38
2023-04-12T09:05:10.226Z,25.47
2023-04-12T09:07:37.059Z,25.51
2023-04-12T09:10:04.756Z,25.51
2023-04-12T09:12:31.334Z,25.28
2023-04-12T09:15:12.843Z,25.65
2023-04-12T09:17:40.899Z,25.61
2023-04-12T09:20:16.510Z,25.62
2023-04-12T09:22:45.173Z,25.61
2023-04-12T09:25:15.072Z,25.63
2023-04-12T09:27:51.955Z,25.72
2023-04-12T09:30:19.445Z,25.75
2023-04-12T09:32:46.275Z,25.77
2023-04-12T09:35:12.995Z,25.71
2023-04-12T09:37:40.284Z,25.74
2023-04-12T09:40:09.367Z,25.74
2023-04-12T09:42:37.251Z,25.72
2023-04-12T09:45:20.204Z,25.66
2023-04-12T09:47:46.919Z,25.60
2023-04-12T09:50:29.088Z,25.65
2023-04-12T09:52:56.754Z,25.76
2023-04-12T09:55:27.900Z,25.79
2023-04-12T09:57:55.582Z,25.82
2023-04-12T10:00:23.383Z,25.81
2023-04-12T10:02:52.264Z,25.84
2023-04-12T10:05:21.215Z,25.85
2023-04-12T10:07:48.351Z,25.85
2023-04-12T10:10:17.387Z,25.84
2023-04-12T10:12:46.687Z,25.77
2023-04-12T10:15:15.136Z,25.84
2023-04-12T10:17:45.385Z,25.84
2023-04-12T10:20:13.454Z,25.84
2023-04-12T10:22:41.668Z,25.80
2023-04-12T10:25:15.823Z,25.84
2023-04-12T10:27:43.286Z,25.78
2023-04-12T10:30:29.655Z,25.88
2023-04-12T10:33:02.306Z,25.87
2023-04-12T10:35:49.019Z,25.84
2023-04-12T10:38:15.750Z,25.81
2023-04-12T10:41:07.900Z,25.90
2023-04-12T10:43:34.685Z,25.61
2023-04-12T10:46:05.093Z,25.76
2023-04-12T10:48:34.697Z,25.71
2023-04-12T10:51:27.575Z,25.71
2023-04-12T10:54:09.629Z,25.77
2023-04-12T10:56:43.487Z,25.76
2023-04-12T10:59:16.465Z,25.74
2023-04-12T11:02:04.586Z,25.89
2023-04-12T11:04:31.461Z,25.59
2023-04-12T11:07:11.615Z,25.65
2023-04-12T11:09:57.796Z,25.61
2023-04-12T11:12:31.784Z,25.62
2023-04-12T11:15:01.795Z,25.53
2023-04-12T11:17:38.274Z,25.39
2023-04-12T11:20:05.589Z,25.12
2023-04-12T11:22:32.761Z,25.32
2023-04-12T11:25:01.386Z,25.41
2023-04-12T11:27:28.431Z,25.51
2023-04-12T11:29:56.644Z,25.57
2023-04-12T11:32:24.482Z,25.60
2023-04-12T11:34:51.428Z,25.54
2023-04-12T11:37:19.076Z,25.54
2023-04-12T11:39:46.077Z,25.63
2023-04-12T11:42:17.072Z,25.64
2023-04-12T11:44:56.150Z,25.64
2023-04-12T11:47:24.025Z,25.61
2023-04-12T11:49:55.817Z,25.61
2023-04-12T11:52:27.943Z,25.46
2023-04-12T11:54:58.659Z,25.30
2023-04-12T11:57:25.330Z,25.37
2023-04-12T11:59:53.119Z,25.37
2023-04-12T12:02:23.833Z,25.38
2023-04-12T12:04:52.034Z,25.37
2023-04-12T12:07:19.435Z,25.30
2023-04-12T12:09:49.122Z,25.19
2023-04-12T12:12:16.203Z,25.37
2023-04-12T12:14:44.438Z,25.38
2023-04-12T12:17:12.269Z,25.31
2023-04-12T12:19:40.133Z,25.36
2023-04-12T12:22:14.267Z,25.40
2023-04-12T12:24:51.494Z,25.41
2023-04-12T12:27:19.552Z,25.43
2023-04-12T12:29:49.306Z,25.32
2023-04-12T12:32:17.451Z,25.43
2023-04-12T12:34:54.441Z,25.35
2023-04-12T12:37:23.523Z,25.40
2023-04-12T12:40:16.380Z,25.45
2023-04-12T12:42:51.304Z,25.41
2023-04-12T12:45:20.102Z,25.41
2023-04-12T12:48:03.263Z,25.42
2023-04-12T12:50:34.221Z,25.34
2023-04-12T12:53:01.096Z,25.40
2023-04-12T12:55:28.192Z,25.39
2023-04-12T12:58:07.257Z,25.40
2023-04-12T13:00:35.022Z,25.46
2023-04-12T13:03:02.102Z,25.59
2023-04-12T13:05:29.326Z,25.58
2023-04-12T13:07:56.199Z,25.54
2023-04-12T13:10:23.711Z,25.51
2023-04-12T13:12:50.534Z,25.50
2023-04-12T13:15:23.290Z,25.55
2023-04-12T13:17:54.813Z,25.62
2023-04-12T13:20:22.286Z,25.56
2023-04-12T13:22:50.505Z,25.46
2023-04-12T13:25:17.197Z,25.49
2023-04-12T13:27:43.930Z,25.52
2023-04-12T13:30:11.586Z,25.47
2023-04-12T13:32:38.475Z,25.43
2023-04-12T13:35:05.741Z,25.36
2023-04-12T13:37:34.617Z,25.37
2023-04-12T13:40:01.238Z,25.29
2023-04-12T13:42:28.246Z,25.41
2023-04-12T13:44:54.853Z,25.37
2023-04-12T13:47:22.461Z,25.39
2023-04-12T13:49:49.133Z,25.41
2023-04-12T13:52:15.813Z,25.40
2023-04-12T13:54:43.240Z,25.37
2023-04-12T13:57:10.043Z,25.37
2023-04-12T13:59:37.296Z,25.37
2023-04-12T14:02:03.951Z,25.36
2023-04-12T14:04:31.942Z,25.35
2023-04-12T14:06:59.214Z,25.16
2023-04-12T14:09:30.242Z,25.48
2023-04-12T14:11:58.194Z,25.54
2023-04-12T14:14:25.646Z,25.64
2023-04-12T14:16:53.820Z,25.71
2023-04-12T14:19:21.553Z,25.76
2023-04-12T14:21:48.597Z,25.77
2023-04-12T14:24:18.447Z,25.64
2023-04-12T14:26:45.356Z,25.70
2023-04-12T14:29:12.104Z,25.80
2023-04-12T14:31:38.934Z,25.75
2023-04-12T14:34:05.880Z,25.55
2023-04-12T14:36:33.463Z,25.24
2023-04-12T14:39:01.664Z,25.16
2023-04-12T14:41:28.525Z,24.88
2023-04-12T14:43:55.589Z,24.72
2023-04-12T14:46:23.413Z,24.34
2023-04-12T14:48:50.101Z,24.49
2023-04-12T14:51:17.025Z,24.54
2023-04-12T14:53:43.634Z,24.61
2023-04-12T14:56:23.855Z,24.73
2023-04-12T14:58:54.013Z,24.81
2023-04-12T15:01:25.199Z,24.90
2023-04-12T15:03:52.473Z,24.95
2023-04-12T15:06:21.070Z,25.05
2023-04-12T15:08:49.478Z,25.19
2023-04-12T15:11:18.925Z,25.26
2023-04-12T15:13:45.546Z,25.18
2023-04-12T15:16:15.035Z,25.32
2023-04-12T15:18:41.925Z,25.42
2023-04-12T15:21:11.762Z,25.43
2023-04-12T15:23:39.111Z,25.31
2023-04-12T15:26:15.855Z,25.45
2023-04-12T15:28:42.666Z,25.38
2023-04-12T15:31:09.690Z,25.52
2023-04-12T15:33:37.183Z,25.30
2023-04-12T15:36:04.657Z,25.42
2023-04-12T15:38:31.435Z,25.11
2023-04-12T15:41:01.835Z,25.50
2023-04-12T15:43:28.797Z,25.57
2023-04-12T15:45:56.701Z,25.47
2023-04-12T15:48:24.051Z,25.56
2023-04-12T15:50:55.930Z,25.63
2023-04-12T15:53:23.927Z,25.68
2023-04-12T15:55:54.327Z,25.68
2023-04-12T15:58:22.648Z,25.71
2023-04-12T16:00:49.843Z,25.73
2023-04-12T16:03:23.232Z,25.73
2023-04-12T16:05:53.525Z,25.64
2023-04-12T16:08:20.872Z,25.56
2023-04-12T16:10:47.538Z,25.46
2023-04-12T16:13:14.830Z,25.41
2023-04-12T16:15:41.487Z,25.42
2023-04-12T16:18:08.382Z,25.40
2023-04-12T16:20:35.295Z,25.34
2023-04-12T16:23:03.704Z,25.47
2023-04-12T16:25:30.535Z,25.45
2023-04-12T16:27:57.535Z,25.46
2023-04-12T16:30:24.355Z,25.53
2023-04-12T16:32:51.221Z,25.48
2023-04-12T16:35:17.957Z,25.47
2023-04-12T16:37:44.774Z,25.42
2023-04-12T16:40:14.812Z,25.40
2023-04-12T16:42:44.408Z,25.38
2023-04-12T16:45:11.931Z,25.44
2023-04-12T16:47:39.177Z,25.42
2023-04-12T16:50:09.225Z,25.41
2023-04-12T16:52:36.834Z,25.44
2023-04-12T16:55:04.419Z,25.39
2023-04-12T16:57:31.679Z,25.30
2023-04-12T16:59:58.732Z,25.32
2023-04-12T17:02:26.142Z,25.39
2023-04-12T17:04:53.153Z,25.37
2023-04-12T17:07:19.935Z,25.42
2023-04-12T17:09:47.132Z,25.42
2023-04-12T17:12:14.002Z,25.40
2023-04-12T17:14:40.699Z,25.40
2023-04-12T17:17:07.356Z,25.37
2023-04-12T17:19:35.505Z,25.43
2023-04-12T17:22:02.433Z,25.42
2023-04-12T17:24:29.456Z,25.43
2023-04-12T17:26:57.356Z,25.41
2023-04-12T17:29:24.683Z,25.43
2023-04-12T17:31:54.207Z,25.56
2023-04-12T17:34:21.806Z,25.57
2023-04-12T17:36:49.263Z,25.61
2023-04-12T17:39:16.190Z,25.53
2023-04-12T17:41:42.944Z,25.62
2023-04-12T17:44:09.650Z,25.58
2023-04-12T17:46:36.250Z,25.56
2023-04-12T17:49:06.119Z,25.45
2023-04-12T17:51:33.331Z,25.39
2023-04-12T17:54:00.641Z,25.39
2023-04-12T17:56:27.573Z,25.37
2023-04-12T17:58:55.172Z,25.32
2023-04-12T18:01:22.122Z,25.30
2023-04-12T18:03:49.053Z,25.53
2023-04-12T18:06:20.377Z,25.62
2023-04-12T18:08:47.298Z,25.68
2023-04-12T18:11:14.532Z,25.67
2023-04-12T18:13:41.998Z,25.70
2023-04-12T18:16:08.902Z,25.70
2023-04-12T18:18:36.143Z,25.54
2023-04-12T18:21:04.830Z,25.54
2023-04-12T18:23:31.887Z,25.44
2023-04-12T18:25:59.096Z,25.42
2023-04-12T18:28:26.312Z,25.34
2023-04-12T18:30:54.060Z,25.35
2023-04-12T18:33:22.256Z,25.42
2023-04-12T18:35:51.236Z,25.55
2023-04-12T18:38:18.681Z,25.63
2023-04-12T18:40:45.378Z,25.68
2023-04-12T18:43:12.369Z,25.71
2023-04-12T18:45:40.523Z,25.73
2023-04-12T18:48:07.783Z,25.70
2023-04-12T18:50:36.116Z,25.74
2023-04-12T18:53:03.901Z,25.73
2023-04-12T18:55:31.349Z,25.75
2023-04-12T18:57:58.434Z,25.74
2023-04-12T19:00:25.310Z,25.72
2023-04-12T19:02:52.082Z,25.74
2023-04-12T19:05:19.274Z,25.74
2023-04-12T19:07:47.057Z,25.71
2023-04-12T19:10:13.901Z,25.70
2023-04-12T19:12:40.877Z,25.68
2023-04-12T19:15:08.579Z,25.67
2023-04-12T19:17:39.524Z,25.63
2023-04-12T19:20:10.819Z,25.55
2023-04-12T19:22:37.623Z,25.65
2023-04-12T19:25:04.754Z,25.57
2023-04-12T19:27:31.508Z,25.48
2023-04-12T19:29:58.228Z,25.41
2023-04-12T19:32:24.987Z,25.40
2023-04-12T19:34:52.355Z,25.42
2023-04-12T19:37:19.397Z,25.12
2023-04-12T19:39:46.084Z,25.55
2023-04-12T19:42:15.005Z,25.27
2023-04-12T19:44:42.203Z,25.57
2023-04-12T19:47:09.095Z,25.58
2023-04-12T19:49:36.112Z,25.66
2023-04-12T19:52:05.369Z,25.35
2023-04-12T19:54:32.605Z,25.69
2023-04-12T19:56:59.335Z,25.63
2023-04-12T19:59:30.724Z,25.65
2023-04-12T20:01:58.789Z,25.61
2023-04-12T20:04:26.136Z,25.54
2023-04-12T20:06:53.039Z,25.59
2023-04-12T20:09:22.360Z,25.55
2023-04-12T20:11:49.011Z,25.44
2023-04-12T20:14:15.852Z,25.63
2023-04-12T20:16:42.888Z,25.65
2023-04-12T20:19:09.772Z,25.58
2023-04-12T20:21:36.489Z,25.57
2023-04-12T20:24:03.975Z,25.63
2023-04-12T20:26:34.112Z,25.63
2023-04-12T20:29:01.183Z,25.41
2023-04-12T20:31:28.477Z,25.62
2023-04-12T20:33:57.008Z,25.49
2023-04-12T20:36:26.068Z,25.61
2023-04-12T20:38:53.203Z,25.58
2023-04-12T20:41:19.964Z,25.57
2023-04-12T20:43:47.703Z,25.36
2023-04-12T20:46:19.557Z,25.59
2023-04-12T20:48:50.796Z,25.59
2023-04-12T20:51:18.547Z,25.60
2023-04-12T20:53:48.270Z,25.40
2023-04-12T20:56:15.430Z,25.54
2023-04-12T20:58:42.018Z,25.54
2023-04-12T21:01:14.523Z,25.43
2023-04-12T21:03:41.866Z,25.38
2023-04-12T21:06:11.861Z,25.32
2023-04-12T21:08:39.018Z,25.25
2023-04-12T21:11:06.097Z,25.18
2023-04-12T21:13:33.427Z,25.12
2023-04-12T21:16:04.036Z,25.13
2023-04-12T21:18:34.135Z,25.20
2023-04-12T21:21:00.810Z,25.32
2023-04-12T21:23:27.973Z,25.38
2023-04-12T21:25:54.630Z,25.40
2023-04-12T21:28:22.757Z,25.46
2023-04-12T21:30:57.013Z,25.39
2023-04-12T21:33:26.573Z,25.51
2023-04-12T21:35:56.202Z,25.47
2023-04-12T21:38:22.932Z,25.47
2023-04-12T21:40:49.736Z,25.44
2023-04-12T21:43:16.511Z,25.36
2023-04-12T21:45:43.333Z,25.30
2023-04-12T21:48:09.978Z,25.30
2023-04-12T21:50:37.594Z,25.26
2023-04-12T21:53:04.238Z,25.27
2023-04-12T21:55:30.894Z,25.32
2023-04-12T21:57:57.583Z,25.35
2023-04-12T22:00:24.903Z,25.26
2023-04-12T22:02:51.692Z,25.31
2023-04-12T22:05:18.367Z,25.24
2023-04-12T22:07:45.138Z,25.24
2023-04-12T22:10:12.158Z,25.22
2023-04-12T22:12:39.554Z,25.16
2023-04-12T22:15:06.911Z,25.13
2023-04-12T22:17:33.625Z,25.07
2023-04-12T22:20:00.363Z,25.13
2023-04-12T22:22:29.813Z,25.13
2023-04-12T22:24:56.497Z,25.08
2023-04-12T22:27:26.437Z,25.06
2023-04-12T22:29:53.750Z,25.24
2023-04-12T22:32:20.713Z,25.19
2023-04-12T22:34:54.846Z,25.23
2023-04-12T22:37:28.353Z,25.23
2023-04-12T22:39:55.075Z,25.13
2023-04-12T22:42:26.449Z,25.21
2023-04-12T22:44:54.205Z,25.18
2023-04-12T22:47:20.888Z,25.11
2023-04-12T22:49:50.676Z,25.17
2023-04-12T22:52:17.658Z,25.12
2023-04-12T22:54:44.367Z,25.17
2023-04-12T22:57:10.996Z,25.13
2023-04-12T22:59:37.543Z,25.19
2023-04-12T23:02:04.511Z,25.14
2023-04-12T23:04:31.303Z,25.17
2023-04-12T23:06:57.874Z,25.17
2023-04-12T23:09:25.494Z,25.17
2023-04-12T23:11:52.605Z,25.24
2023-04-12T23:14:19.211Z,25.22
2023-04-12T23:16:46.186Z,25.20
2023-04-12T23:19:16.552Z,25.20
2023-04-12T23:21:43.403Z,25.24
2023-04-12T23:24:12.070Z,25.15
2023-04-12T23:26:38.642Z,25.12
2023-04-12T23:29:05.259Z,25.11
2023-04-12T23:31:34.541Z,25.12
2023-04-12T23:34:05.787Z,25.17
2023-04-12T23:36:32.773Z,25.19
2023-04-12T23:39:08.557Z,25.16
2023-04-12T23:41:35.139Z,25.24
2023-04-12T23:44:01.884Z,25.14
2023-04-12T23:46:28.601Z,25.23
2023-04-12T23:48:55.206Z,25.16
2023-04-12T23:51:22.539Z,25.14
2023-04-12T23:53:49.133Z,25.09
2023-04-12T23:56:15.756Z,25.16
2023-04-12T23:58:42.301Z,25.08
